sensor_id;sensor_type;location;lat;lon;timestamp;pressure;altitude;pressure_sealevel;temperature;humidity
62420;BME280;48460;51.616;5.426;2022-07-03T00:01:22;101664.03;;;16.11;93.42
62420;BME280;48460;51.616;5.426;2022-07-03T00:03:48;101654.00;;;16.16;93.26
62420;BME280;48460;51.616;5.426;2022-07-03T00:06:13;101655.91;;;16.14;93.41
62420;BME280;48460;51.616;5.426;2022-07-03T00:08:39;101659.03;;;16.06;93.00
62420;BME280;48460;51.616;5.426;2022-07-03T00:11:05;101658.66;;;15.98;93.50
62420;BME280;48460;51.616;5.426;2022-07-03T00:13:31;101661.38;;;15.82;94.74
62420;BME280;48460;51.616;5.426;2022-07-03T00:15:56;101667.25;;;15.73;95.77
62420;BME280;48460;51.616;5.426;2022-07-03T00:18:22;101678.63;;;15.75;95.59
62420;BME280;48460;51.616;5.426;2022-07-03T00:20:48;101686.88;;;15.85;94.05
62420;BME280;48460;51.616;5.426;2022-07-03T00:23:17;101689.81;;;15.80;93.87
62420;BME280;48460;51.616;5.426;2022-07-03T00:25:44;101692.25;;;15.69;92.05
62420;BME280;48460;51.616;5.426;2022-07-03T00:28:10;101687.53;;;15.58;91.95
62420;BME280;48460;51.616;5.426;2022-07-03T00:30:35;101693.19;;;15.68;91.42
62420;BME280;48460;51.616;5.426;2022-07-03T00:33:02;101696.91;;;15.80;90.51
62420;BME280;48460;51.616;5.426;2022-07-03T00:35:34;101693.78;;;15.87;90.65
62420;BME280;48460;51.616;5.426;2022-07-03T00:38:01;101697.28;;;15.88;90.47
62420;BME280;48460;51.616;5.426;2022-07-03T00:40:26;101697.88;;;15.93;90.22
62420;BME280;48460;51.616;5.426;2022-07-03T00:42:52;101697.41;;;15.86;90.19
62420;BME280;48460;51.616;5.426;2022-07-03T00:45:19;101691.97;;;15.88;90.24
62420;BME280;48460;51.616;5.426;2022-07-03T00:47:45;101689.06;;;15.92;89.81
62420;BME280;48460;51.616;5.426;2022-07-03T00:50:11;101681.94;;;15.93;89.73
62420;BME280;48460;51.616;5.426;2022-07-03T00:52:37;101684.72;;;15.91;89.74
62420;BME280;48460;51.616;5.426;2022-07-03T00:55:07;101689.25;;;15.89;89.52
62420;BME280;48460;51.616;5.426;2022-07-03T00:57:33;101695.84;;;15.82;89.31
62420;BME280;48460;51.616;5.426;2022-07-03T01:00:00;101692.47;;;15.80;90.23
62420;BME280;48460;51.616;5.426;2022-07-03T01:07:55;101682.88;;;15.78;89.88
62420;BME280;48460;51.616;5.426;2022-07-03T01:13:18;101688.41;;;15.59;91.39
62420;BME280;48460;51.616;5.426;2022-07-03T01:15:59;101686.84;;;15.40;92.42
62420;BME280;48460;51.616;5.426;2022-07-03T01:18:35;101685.69;;;15.30;92.83
62420;BME280;48460;51.616;5.426;2022-07-03T01:21:16;101682.19;;;15.30;92.27
62420;BME280;48460;51.616;5.426;2022-07-03T01:26:14;101696.31;;;15.14;91.98
62420;BME280;48460;51.616;5.426;2022-07-03T01:28:43;101691.38;;;15.08;92.29
62420;BME280;48460;51.616;5.426;2022-07-03T01:31:10;101698.22;;;14.96;93.14
62420;BME280;48460;51.616;5.426;2022-07-03T01:33:39;101694.88;;;14.93;93.41
62420;BME280;48460;51.616;5.426;2022-07-03T01:36:06;101686.19;;;14.91;93.29
62420;BME280;48460;51.616;5.426;2022-07-03T01:38:37;101682.50;;;14.93;93.80
62420;BME280;48460;51.616;5.426;2022-07-03T01:41:07;101682.16;;;14.99;93.37
62420;BME280;48460;51.616;5.426;2022-07-03T01:43:44;101690.59;;;15.06;92.32
62420;BME280;48460;51.616;5.426;2022-07-03T01:46:12;101686.16;;;15.07;91.99
62420;BME280;48460;51.616;5.426;2022-07-03T01:48:41;101685.31;;;15.06;91.26
62420;BME280;48460;51.616;5.426;2022-07-03T01:51:09;101693.50;;;15.01;90.54
62420;BME280;48460;51.616;5.426;2022-07-03T01:53:46;101680.06;;;15.04;90.75
62420;BME280;48460;51.616;5.426;2022-07-03T01:56:12;101685.53;;;15.01;90.79
62420;BME280;48460;51.616;5.426;2022-07-03T01:58:38;101682.34;;;14.96;90.16
62420;BME280;48460;51.616;5.426;2022-07-03T02:01:15;101693.41;;;14.87;91.03
62420;BME280;48460;51.616;5.426;2022-07-03T02:04:04;101686.09;;;14.76;91.78
62420;BME280;48460;51.616;5.426;2022-07-03T02:06:42;101679.94;;;14.76;91.75
62420;BME280;48460;51.616;5.426;2022-07-03T02:09:10;101682.50;;;14.77;91.96
62420;BME280;48460;51.616;5.426;2022-07-03T02:11:41;101678.22;;;14.75;91.88
62420;BME280;48460;51.616;5.426;2022-07-03T02:14:12;101667.47;;;14.78;91.84
62420;BME280;48460;51.616;5.426;2022-07-03T02:19:17;101657.81;;;14.77;92.14
62420;BME280;48460;51.616;5.426;2022-07-03T02:21:50;101665.75;;;14.77;91.71
62420;BME280;48460;51.616;5.426;2022-07-03T02:24:22;101667.63;;;14.75;91.24
62420;BME280;48460;51.616;5.426;2022-07-03T02:27:03;101672.19;;;14.73;91.92
62420;BME280;48460;51.616;5.426;2022-07-03T02:29:47;101667.56;;;14.61;92.21
62420;BME280;48460;51.616;5.426;2022-07-03T02:32:15;101675.72;;;14.40;92.93
62420;BME280;48460;51.616;5.426;2022-07-03T02:34:45;101675.78;;;14.39;93.15
62420;BME280;48460;51.616;5.426;2022-07-03T02:37:17;101672.97;;;14.42;93.27
62420;BME280;48460;51.616;5.426;2022-07-03T02:40:00;101674.72;;;14.43;92.59
62420;BME280;48460;51.616;5.426;2022-07-03T02:42:38;101681.59;;;14.29;93.43
62420;BME280;48460;51.616;5.426;2022-07-03T02:45:05;101682.88;;;14.22;93.58
62420;BME280;48460;51.616;5.426;2022-07-03T02:50:04;101674.78;;;14.25;93.87
62420;BME280;48460;51.616;5.426;2022-07-03T02:55:09;101677.75;;;14.35;93.47
62420;BME280;48460;51.616;5.426;2022-07-03T02:57:40;101669.81;;;14.35;93.03
62420;BME280;48460;51.616;5.426;2022-07-03T03:00:08;101676.06;;;14.34;92.56
62420;BME280;48460;51.616;5.426;2022-07-03T03:02:55;101670.94;;;14.31;92.43
62420;BME280;48460;51.616;5.426;2022-07-03T03:05:53;101670.84;;;14.32;91.97
62420;BME280;48460;51.616;5.426;2022-07-03T03:08:28;101672.81;;;14.29;93.50
62420;BME280;48460;51.616;5.426;2022-07-03T03:11:03;101672.19;;;14.24;93.45
62420;BME280;48460;51.616;5.426;2022-07-03T03:13:31;101677.81;;;14.18;93.16
62420;BME280;48460;51.616;5.426;2022-07-03T03:16:07;101676.34;;;14.12;93.71
62420;BME280;48460;51.616;5.426;2022-07-03T03:18:38;101680.88;;;14.10;94.64
62420;BME280;48460;51.616;5.426;2022-07-03T03:21:05;101678.59;;;14.20;91.16
62420;BME280;48460;51.616;5.426;2022-07-03T03:23:50;101687.41;;;14.03;93.54
62420;BME280;48460;51.616;5.426;2022-07-03T03:26:22;101695.59;;;13.98;94.75
62420;BME280;48460;51.616;5.426;2022-07-03T03:28:49;101691.84;;;14.02;94.62
62420;BME280;48460;51.616;5.426;2022-07-03T03:31:19;101696.47;;;13.99;94.88
62420;BME280;48460;51.616;5.426;2022-07-03T03:33:49;101691.41;;;13.77;96.16
62420;BME280;48460;51.616;5.426;2022-07-03T03:36:16;101693.47;;;13.72;96.46
62420;BME280;48460;51.616;5.426;2022-07-03T03:38:43;101685.38;;;13.75;96.26
62420;BME280;48460;51.616;5.426;2022-07-03T03:41:08;101688.72;;;13.78;96.29
62420;BME280;48460;51.616;5.426;2022-07-03T03:43:34;101696.38;;;13.83;96.20
62420;BME280;48460;51.616;5.426;2022-07-03T03:46:01;101690.88;;;13.87;96.21
62420;BME280;48460;51.616;5.426;2022-07-03T03:48:30;101701.78;;;13.81;96.26
62420;BME280;48460;51.616;5.426;2022-07-03T03:50:56;101704.72;;;13.75;96.76
62420;BME280;48460;51.616;5.426;2022-07-03T03:53:23;101700.91;;;13.81;96.82
62420;BME280;48460;51.616;5.426;2022-07-03T03:56:11;101685.41;;;13.90;95.69
62420;BME280;48460;51.616;5.426;2022-07-03T03:58:39;101693.97;;;13.96;96.50
62420;BME280;48460;51.616;5.426;2022-07-03T04:01:06;101686.63;;;14.01;96.22
62420;BME280;48460;51.616;5.426;2022-07-03T04:03:32;101677.47;;;14.08;96.47
62420;BME280;48460;51.616;5.426;2022-07-03T04:05:58;101687.44;;;14.19;96.02
62420;BME280;48460;51.616;5.426;2022-07-03T04:08:25;101685.75;;;14.18;95.70
62420;BME280;48460;51.616;5.426;2022-07-03T04:10:50;101687.44;;;14.19;95.07
62420;BME280;48460;51.616;5.426;2022-07-03T04:13:17;101687.28;;;14.22;95.05
62420;BME280;48460;51.616;5.426;2022-07-03T04:15:44;101683.72;;;14.23;94.65
62420;BME280;48460;51.616;5.426;2022-07-03T04:18:09;101683.63;;;14.24;94.53
62420;BME280;48460;51.616;5.426;2022-07-03T04:20:35;101689.00;;;14.23;94.58
62420;BME280;48460;51.616;5.426;2022-07-03T04:23:00;101690.72;;;14.24;94.84
62420;BME280;48460;51.616;5.426;2022-07-03T04:25:26;101690.03;;;14.20;95.37
62420;BME280;48460;51.616;5.426;2022-07-03T04:27:52;101688.00;;;14.25;95.25
62420;BME280;48460;51.616;5.426;2022-07-03T04:30:17;101687.84;;;14.28;94.93
62420;BME280;48460;51.616;5.426;2022-07-03T04:32:43;101692.16;;;14.29;94.94
62420;BME280;48460;51.616;5.426;2022-07-03T04:35:09;101699.50;;;14.24;95.34
62420;BME280;48460;51.616;5.426;2022-07-03T04:37:34;101699.59;;;14.23;95.02
62420;BME280;48460;51.616;5.426;2022-07-03T04:40:00;101704.19;;;14.19;96.35
62420;BME280;48460;51.616;5.426;2022-07-03T04:42:26;101696.78;;;14.26;96.08
62420;BME280;48460;51.616;5.426;2022-07-03T04:44:51;101706.09;;;14.33;95.56
62420;BME280;48460;51.616;5.426;2022-07-03T04:47:17;101704.28;;;14.33;96.04
62420;BME280;48460;51.616;5.426;2022-07-03T04:49:42;101704.00;;;14.40;96.52
62420;BME280;48460;51.616;5.426;2022-07-03T04:52:08;101702.88;;;14.44;96.30
62420;BME280;48460;51.616;5.426;2022-07-03T04:54:34;101707.16;;;14.46;95.72
62420;BME280;48460;51.616;5.426;2022-07-03T04:56:59;101709.00;;;14.44;96.62
62420;BME280;48460;51.616;5.426;2022-07-03T04:59:25;101711.66;;;14.44;96.17
62420;BME280;48460;51.616;5.426;2022-07-03T05:01:53;101715.41;;;14.40;96.56
62420;BME280;48460;51.616;5.426;2022-07-03T05:04:19;101709.19;;;14.41;96.56
62420;BME280;48460;51.616;5.426;2022-07-03T05:06:44;101713.78;;;14.38;96.84
62420;BME280;48460;51.616;5.426;2022-07-03T05:09:10;101714.47;;;14.41;97.39
62420;BME280;48460;51.616;5.426;2022-07-03T05:11:36;101709.13;;;14.43;97.66
62420;BME280;48460;51.616;5.426;2022-07-03T05:14:02;101716.72;;;14.49;97.32
62420;BME280;48460;51.616;5.426;2022-07-03T05:16:28;101718.91;;;14.58;97.05
62420;BME280;48460;51.616;5.426;2022-07-03T05:18:53;101710.50;;;14.66;96.73
62420;BME280;48460;51.616;5.426;2022-07-03T05:21:19;101718.28;;;14.69;95.51
62420;BME280;48460;51.616;5.426;2022-07-03T05:23:44;101719.66;;;14.76;96.92
62420;BME280;48460;51.616;5.426;2022-07-03T05:26:09;101730.78;;;14.82;95.62
62420;BME280;48460;51.616;5.426;2022-07-03T05:28:35;101717.13;;;14.90;96.20
62420;BME280;48460;51.616;5.426;2022-07-03T05:31:00;101723.59;;;15.00;95.85
62420;BME280;48460;51.616;5.426;2022-07-03T05:33:26;101723.16;;;15.08;96.37
62420;BME280;48460;51.616;5.426;2022-07-03T05:35:51;101731.50;;;15.16;96.05
62420;BME280;48460;51.616;5.426;2022-07-03T05:38:17;101723.31;;;15.21;95.31
62420;BME280;48460;51.616;5.426;2022-07-03T05:41:02;101731.31;;;15.35;94.67
62420;BME280;48460;51.616;5.426;2022-07-03T05:43:28;101733.34;;;15.46;95.26
62420;BME280;48460;51.616;5.426;2022-07-03T05:45:53;101728.09;;;15.60;94.35
62420;BME280;48460;51.616;5.426;2022-07-03T05:48:18;101734.06;;;15.80;94.67
62420;BME280;48460;51.616;5.426;2022-07-03T05:50:44;101724.22;;;15.96;92.89
62420;BME280;48460;51.616;5.426;2022-07-03T05:53:09;101728.97;;;16.05;92.88
62420;BME280;48460;51.616;5.426;2022-07-03T05:55:34;101730.78;;;16.19;93.20
62420;BME280;48460;51.616;5.426;2022-07-03T05:58:00;101731.53;;;16.35;92.00
62420;BME280;48460;51.616;5.426;2022-07-03T06:00:25;101730.84;;;16.60;91.32
62420;BME280;48460;51.616;5.426;2022-07-03T06:02:51;101734.72;;;16.83;89.22
62420;BME280;48460;51.616;5.426;2022-07-03T06:05:16;101738.97;;;17.00;88.26
62420;BME280;48460;51.616;5.426;2022-07-03T06:07:41;101738.19;;;16.98;87.23
62420;BME280;48460;51.616;5.426;2022-07-03T06:10:07;101741.38;;;16.91;87.04
62420;BME280;48460;51.616;5.426;2022-07-03T06:12:33;101741.38;;;16.91;87.51
62420;BME280;48460;51.616;5.426;2022-07-03T06:14:58;101740.84;;;16.98;86.68
62420;BME280;48460;51.616;5.426;2022-07-03T06:17:24;101744.88;;;17.18;87.25
62420;BME280;48460;51.616;5.426;2022-07-03T06:19:49;101750.91;;;17.35;86.62
62420;BME280;48460;51.616;5.426;2022-07-03T06:22:14;101750.31;;;17.57;85.75
62420;BME280;48460;51.616;5.426;2022-07-03T06:24:40;101745.22;;;17.66;85.26
62420;BME280;48460;51.616;5.426;2022-07-03T06:27:05;101748.69;;;17.81;83.86
62420;BME280;48460;51.616;5.426;2022-07-03T06:29:31;101749.47;;;17.96;84.25
62420;BME280;48460;51.616;5.426;2022-07-03T06:31:56;101742.88;;;17.89;84.54
62420;BME280;48460;51.616;5.426;2022-07-03T06:34:21;101750.22;;;17.85;84.53
62420;BME280;48460;51.616;5.426;2022-07-03T06:36:47;101740.50;;;17.84;84.28
62420;BME280;48460;51.616;5.426;2022-07-03T06:39:12;101761.06;;;18.08;85.87
62420;BME280;48460;51.616;5.426;2022-07-03T06:41:37;101755.19;;;18.41;84.20
62420;BME280;48460;51.616;5.426;2022-07-03T06:44:03;101745.72;;;18.62;81.24
62420;BME280;48460;51.616;5.426;2022-07-03T06:46:30;101746.22;;;18.80;80.37
62420;BME280;48460;51.616;5.426;2022-07-03T06:48:55;101747.81;;;18.83;79.25
62420;BME280;48460;51.616;5.426;2022-07-03T06:51:20;101744.25;;;18.95;80.85
62420;BME280;48460;51.616;5.426;2022-07-03T06:53:46;101735.13;;;19.10;78.31
62420;BME280;48460;51.616;5.426;2022-07-03T06:56:11;101736.81;;;19.11;76.56
62420;BME280;48460;51.616;5.426;2022-07-03T06:58:36;101737.19;;;19.31;77.93
62420;BME280;48460;51.616;5.426;2022-07-03T07:01:02;101750.31;;;19.45;75.74
62420;BME280;48460;51.616;5.426;2022-07-03T07:03:27;101743.50;;;19.65;76.91
62420;BME280;48460;51.616;5.426;2022-07-03T07:05:53;101742.81;;;19.74;76.33
62420;BME280;48460;51.616;5.426;2022-07-03T07:08:18;101743.22;;;19.81;73.76
62420;BME280;48460;51.616;5.426;2022-07-03T07:10:43;101744.94;;;19.93;73.42
62420;BME280;48460;51.616;5.426;2022-07-03T07:13:09;101747.84;;;19.90;74.04
62420;BME280;48460;51.616;5.426;2022-07-03T07:15:34;101742.25;;;19.93;71.09
62420;BME280;48460;51.616;5.426;2022-07-03T07:17:59;101748.84;;;20.12;70.64
62420;BME280;48460;51.616;5.426;2022-07-03T07:20:25;101741.44;;;20.26;71.97
62420;BME280;48460;51.616;5.426;2022-07-03T07:22:50;101754.19;;;20.23;68.48
62420;BME280;48460;51.616;5.426;2022-07-03T07:25:16;101744.13;;;20.26;70.05
62420;BME280;48460;51.616;5.426;2022-07-03T07:27:41;101744.25;;;20.47;69.57
62420;BME280;48460;51.616;5.426;2022-07-03T07:30:07;101746.78;;;20.83;69.18
62420;BME280;48460;51.616;5.426;2022-07-03T07:32:33;101751.63;;;21.00;67.94
62420;BME280;48460;51.616;5.426;2022-07-03T07:34:58;101759.66;;;21.00;66.41
62420;BME280;48460;51.616;5.426;2022-07-03T07:37:23;101758.91;;;21.09;65.69
62420;BME280;48460;51.616;5.426;2022-07-03T07:39:49;101765.19;;;21.20;65.84
62420;BME280;48460;51.616;5.426;2022-07-03T07:42:14;101763.72;;;21.59;65.60
62420;BME280;48460;51.616;5.426;2022-07-03T07:44:41;101760.44;;;21.55;66.19
62420;BME280;48460;51.616;5.426;2022-07-03T07:47:06;101761.31;;;21.77;63.76
62420;BME280;48460;51.616;5.426;2022-07-03T07:49:32;101769.69;;;21.83;62.54
62420;BME280;48460;51.616;5.426;2022-07-03T07:51:57;101764.41;;;21.93;62.10
62420;BME280;48460;51.616;5.426;2022-07-03T07:54:23;101766.00;;;22.05;62.15
62420;BME280;48460;51.616;5.426;2022-07-03T07:56:48;101766.41;;;21.80;61.43
62420;BME280;48460;51.616;5.426;2022-07-03T07:59:13;101767.28;;;21.80;61.23
62420;BME280;48460;51.616;5.426;2022-07-03T08:01:39;101762.19;;;21.77;62.05
62420;BME280;48460;51.616;5.426;2022-07-03T08:04:23;101761.25;;;21.67;61.98
62420;BME280;48460;51.616;5.426;2022-07-03T08:07:06;101764.59;;;21.80;61.02
62420;BME280;48460;51.616;5.426;2022-07-03T08:11:57;101765.84;;;22.18;61.36
62420;BME280;48460;51.616;5.426;2022-07-03T08:14:23;101768.53;;;22.49;59.61
62420;BME280;48460;51.616;5.426;2022-07-03T08:16:48;101767.78;;;22.78;58.72
62420;BME280;48460;51.616;5.426;2022-07-03T08:19:14;101766.94;;;22.87;57.43
62420;BME280;48460;51.616;5.426;2022-07-03T08:21:40;101770.63;;;22.86;60.34
62420;BME280;48460;51.616;5.426;2022-07-03T08:24:06;101774.53;;;22.72;57.38
62420;BME280;48460;51.616;5.426;2022-07-03T08:26:31;101770.53;;;22.57;58.19
62420;BME280;48460;51.616;5.426;2022-07-03T08:28:57;101774.16;;;22.86;57.40
62420;BME280;48460;51.616;5.426;2022-07-03T08:31:25;101780.78;;;22.82;55.73
62420;BME280;48460;51.616;5.426;2022-07-03T08:33:50;101775.41;;;22.82;57.67
62420;BME280;48460;51.616;5.426;2022-07-03T08:36:16;101773.44;;;22.84;57.38
62420;BME280;48460;51.616;5.426;2022-07-03T08:38:41;101786.25;;;22.71;57.74
62420;BME280;48460;51.616;5.426;2022-07-03T08:41:08;101769.06;;;22.93;59.33
62420;BME280;48460;51.616;5.426;2022-07-03T08:43:35;101771.66;;;22.94;57.48
62420;BME280;48460;51.616;5.426;2022-07-03T08:46:01;101768.88;;;23.06;57.79
62420;BME280;48460;51.616;5.426;2022-07-03T08:48:28;101762.69;;;23.54;58.68
62420;BME280;48460;51.616;5.426;2022-07-03T08:50:56;101767.38;;;23.71;57.14
62420;BME280;48460;51.616;5.426;2022-07-03T08:53:23;101760.56;;;23.57;56.45
62420;BME280;48460;51.616;5.426;2022-07-03T08:55:49;101767.75;;;23.96;56.80
62420;BME280;48460;51.616;5.426;2022-07-03T08:58:16;101765.66;;;23.90;54.56
62420;BME280;48460;51.616;5.426;2022-07-03T09:00:44;101768.75;;;23.36;55.18
62420;BME280;48460;51.616;5.426;2022-07-03T09:03:11;101756.88;;;23.58;56.59
62420;BME280;48460;51.616;5.426;2022-07-03T09:05:38;101766.66;;;23.79;53.86
62420;BME280;48460;51.616;5.426;2022-07-03T09:08:06;101762.97;;;24.37;54.40
62420;BME280;48460;51.616;5.426;2022-07-03T09:10:32;101766.06;;;24.42;52.92
62420;BME280;48460;51.616;5.426;2022-07-03T09:12:58;101768.19;;;24.38;52.07
62420;BME280;48460;51.616;5.426;2022-07-03T09:15:24;101764.88;;;24.64;52.55
62420;BME280;48460;51.616;5.426;2022-07-03T09:18:00;101767.41;;;24.65;51.01
62420;BME280;48460;51.616;5.426;2022-07-03T09:20:31;101766.97;;;24.70;53.27
62420;BME280;48460;51.616;5.426;2022-07-03T09:25:54;101776.13;;;24.77;51.43
62420;BME280;48460;51.616;5.426;2022-07-03T09:28:53;101765.47;;;24.85;51.38
62420;BME280;48460;51.616;5.426;2022-07-03T09:31:22;101772.38;;;25.33;50.84
62420;BME280;48460;51.616;5.426;2022-07-03T09:33:59;101771.22;;;25.72;49.67
62420;BME280;48460;51.616;5.426;2022-07-03T09:36:49;101770.88;;;25.92;49.38
62420;BME280;48460;51.616;5.426;2022-07-03T09:42:00;101785.03;;;24.50;52.03
62420;BME280;48460;51.616;5.426;2022-07-03T09:44:42;101791.69;;;24.36;51.49
62420;BME280;48460;51.616;5.426;2022-07-03T09:47:20;101793.16;;;24.68;51.65
62420;BME280;48460;51.616;5.426;2022-07-03T09:52:42;101785.22;;;24.94;49.00
62420;BME280;48460;51.616;5.426;2022-07-03T09:57:33;101789.63;;;25.22;47.94
62420;BME280;48460;51.616;5.426;2022-07-03T10:05:35;101775.47;;;24.93;49.29
62420;BME280;48460;51.616;5.426;2022-07-03T10:10:30;101789.16;;;24.44;50.83
62420;BME280;48460;51.616;5.426;2022-07-03T10:12:57;101781.16;;;24.05;51.19
62420;BME280;48460;51.616;5.426;2022-07-03T10:15:23;101790.66;;;24.09;51.81
62420;BME280;48460;51.616;5.426;2022-07-03T10:17:51;101786.56;;;24.80;51.10
62420;BME280;48460;51.616;5.426;2022-07-03T10:20:27;101782.72;;;25.10;50.47
62420;BME280;48460;51.616;5.426;2022-07-03T10:22:53;101792.56;;;24.74;50.73
62420;BME280;48460;51.616;5.426;2022-07-03T10:25:18;101793.91;;;24.60;50.82
62420;BME280;48460;51.616;5.426;2022-07-03T10:27:45;101793.94;;;23.84;51.83
62420;BME280;48460;51.616;5.426;2022-07-03T10:30:15;101800.19;;;24.31;51.33
62420;BME280;48460;51.616;5.426;2022-07-03T10:32:43;101793.34;;;25.12;47.07
62420;BME280;48460;51.616;5.426;2022-07-03T10:35:10;101796.38;;;25.27;46.66
62420;BME280;48460;51.616;5.426;2022-07-03T10:37:43;101795.63;;;25.70;46.37
62420;BME280;48460;51.616;5.426;2022-07-03T10:40:24;101796.13;;;26.35;44.66
62420;BME280;48460;51.616;5.426;2022-07-03T10:43:15;101799.19;;;27.17;43.23
62420;BME280;48460;51.616;5.426;2022-07-03T10:46:13;101791.63;;;27.45;42.97
62420;BME280;48460;51.616;5.426;2022-07-03T10:49:02;101802.97;;;28.06;42.08
62420;BME280;48460;51.616;5.426;2022-07-03T10:51:50;101798.91;;;27.78;42.06
62420;BME280;48460;51.616;5.426;2022-07-03T10:54:24;101798.38;;;27.66;40.46
62420;BME280;48460;51.616;5.426;2022-07-03T10:57:12;101796.16;;;26.78;41.96
62420;BME280;48460;51.616;5.426;2022-07-03T11:07:28;101796.03;;;25.12;45.93
62420;BME280;48460;51.616;5.426;2022-07-03T11:15:37;101795.97;;;25.93;46.33
62420;BME280;48460;51.616;5.426;2022-07-03T11:18:34;101790.28;;;26.48;44.39
62420;BME280;48460;51.616;5.426;2022-07-03T11:23:52;101791.44;;;25.58;45.93
62420;BME280;48460;51.616;5.426;2022-07-03T11:26:22;101796.09;;;25.83;45.52
62420;BME280;48460;51.616;5.426;2022-07-03T11:31:17;101775.84;;;26.05;44.27
62420;BME280;48460;51.616;5.426;2022-07-03T11:33:48;101775.28;;;25.58;46.09
62420;BME280;48460;51.616;5.426;2022-07-03T11:39:08;101786.66;;;25.69;44.23
62420;BME280;48460;51.616;5.426;2022-07-03T11:44:07;101777.84;;;26.29;43.06
62420;BME280;48460;51.616;5.426;2022-07-03T11:46:35;101769.94;;;27.04;41.22
62420;BME280;48460;51.616;5.426;2022-07-03T11:49:12;101784.56;;;26.94;39.98
62420;BME280;48460;51.616;5.426;2022-07-03T11:51:40;101786.97;;;26.54;39.41
62420;BME280;48460;51.616;5.426;2022-07-03T11:54:06;101775.06;;;26.47;40.53
62420;BME280;48460;51.616;5.426;2022-07-03T11:56:33;101774.28;;;26.21;41.14
62420;BME280;48460;51.616;5.426;2022-07-03T11:59:00;101776.91;;;26.39;40.25
62420;BME280;48460;51.616;5.426;2022-07-03T12:04:02;101778.56;;;25.43;43.53
62420;BME280;48460;51.616;5.426;2022-07-03T12:06:49;101769.84;;;25.85;42.76
62420;BME280;48460;51.616;5.426;2022-07-03T12:09:23;101782.31;;;26.12;43.03
62420;BME280;48460;51.616;5.426;2022-07-03T12:12:15;101777.53;;;26.58;42.10
62420;BME280;48460;51.616;5.426;2022-07-03T12:14:51;101775.19;;;26.03;40.01
62420;BME280;48460;51.616;5.426;2022-07-03T12:17:21;101773.84;;;25.28;41.13
62420;BME280;48460;51.616;5.426;2022-07-03T12:19:59;101767.16;;;25.14;42.97
62420;BME280;48460;51.616;5.426;2022-07-03T12:22:30;101778.84;;;24.95;43.37
62420;BME280;48460;51.616;5.426;2022-07-03T12:25:03;101766.47;;;24.84;42.05
62420;BME280;48460;51.616;5.426;2022-07-03T12:27:31;101767.75;;;25.61;42.97
62420;BME280;48460;51.616;5.426;2022-07-03T12:29:57;101772.91;;;26.17;41.43
62420;BME280;48460;51.616;5.426;2022-07-03T12:32:23;101770.31;;;26.33;41.35
62420;BME280;48460;51.616;5.426;2022-07-03T12:34:49;101772.31;;;26.57;39.77
62420;BME280;48460;51.616;5.426;2022-07-03T12:37:15;101765.88;;;27.09;39.68
62420;BME280;48460;51.616;5.426;2022-07-03T12:39:45;101771.19;;;26.76;40.48
62420;BME280;48460;51.616;5.426;2022-07-03T12:44:42;101766.59;;;25.46;43.61
62420;BME280;48460;51.616;5.426;2022-07-03T12:47:07;101772.97;;;25.81;42.97
62420;BME280;48460;51.616;5.426;2022-07-03T12:49:33;101772.94;;;25.99;43.08
62420;BME280;48460;51.616;5.426;2022-07-03T12:51:58;101769.78;;;26.03;43.07
62420;BME280;48460;51.616;5.426;2022-07-03T12:54:34;101774.84;;;25.62;42.33
62420;BME280;48460;51.616;5.426;2022-07-03T12:57:08;101766.69;;;25.18;43.40
62420;BME280;48460;51.616;5.426;2022-07-03T13:02:35;101777.56;;;24.71;41.84
62420;BME280;48460;51.616;5.426;2022-07-03T13:07:39;101768.75;;;25.60;41.92
62420;BME280;48460;51.616;5.426;2022-07-03T13:10:06;101769.06;;;25.57;41.92
62420;BME280;48460;51.616;5.426;2022-07-03T13:12:32;101774.63;;;25.38;42.34
62420;BME280;48460;51.616;5.426;2022-07-03T13:14:59;101780.69;;;25.40;42.57
62420;BME280;48460;51.616;5.426;2022-07-03T13:18:04;101766.22;;;25.59;40.15
62420;BME280;48460;51.616;5.426;2022-07-03T13:20:33;101772.69;;;26.10;41.15
62420;BME280;48460;51.616;5.426;2022-07-03T13:23:03;101770.09;;;26.00;40.19
62420;BME280;48460;51.616;5.426;2022-07-03T13:25:29;101766.28;;;26.11;40.76
62420;BME280;48460;51.616;5.426;2022-07-03T13:28:09;101762.41;;;25.87;41.76
62420;BME280;48460;51.616;5.426;2022-07-03T13:30:36;101774.41;;;25.04;44.66
62420;BME280;48460;51.616;5.426;2022-07-03T13:33:03;101767.94;;;24.96;44.22
62420;BME280;48460;51.616;5.426;2022-07-03T13:35:29;101768.63;;;24.98;44.58
62420;BME280;48460;51.616;5.426;2022-07-03T13:37:55;101767.38;;;25.56;44.22
62420;BME280;48460;51.616;5.426;2022-07-03T13:40:20;101771.09;;;26.25;42.82
62420;BME280;48460;51.616;5.426;2022-07-03T13:42:46;101773.75;;;26.86;40.42
62420;BME280;48460;51.616;5.426;2022-07-03T13:45:11;101760.22;;;27.44;39.80
62420;BME280;48460;51.616;5.426;2022-07-03T13:47:37;101761.88;;;27.21;40.58
62420;BME280;48460;51.616;5.426;2022-07-03T13:50:03;101771.50;;;26.73;40.32
62420;BME280;48460;51.616;5.426;2022-07-03T13:52:29;101772.25;;;25.97;41.30
62420;BME280;48460;51.616;5.426;2022-07-03T13:54:57;101781.69;;;25.39;42.57
62420;BME280;48460;51.616;5.426;2022-07-03T13:57:23;101784.09;;;24.96;43.37
62420;BME280;48460;51.616;5.426;2022-07-03T13:59:48;101791.63;;;24.08;44.50
62420;BME280;48460;51.616;5.426;2022-07-03T14:02:14;101786.44;;;23.78;47.88
62420;BME280;48460;51.616;5.426;2022-07-03T14:04:40;101792.25;;;23.73;48.81
62420;BME280;48460;51.616;5.426;2022-07-03T14:07:06;101789.97;;;23.69;47.98
62420;BME280;48460;51.616;5.426;2022-07-03T14:09:31;101790.75;;;24.18;47.13
62420;BME280;48460;51.616;5.426;2022-07-03T14:11:57;101788.47;;;24.42;47.36
62420;BME280;48460;51.616;5.426;2022-07-03T14:14:25;101797.25;;;24.99;46.54